createdAt,value
2023-04-12T00:01:26.422Z,94020.97
2023-04-12T00:03:57.470Z,94011.50
2023-04-12T00:06:32.447Z,94003.63
2023-04-12T00:09:01.943Z,94005.72
2023-04-12T00:11:32.966Z,93993.00
2023-04-12T00:14:02.341Z,93999.31
2023-04-12T00:16:31.370Z,94001.25
2023-04-12T00:19:03.611Z,93996.38
2023-04-12T00:21:32.716Z,93998.03
2023-04-12T00:24:01.864Z,93996.06
2023-04-12T00:26:30.987Z,93982.03
2023-04-12T00:29:00.152Z,93982.28
2023-04-12T00:31:29.595Z,93984.59
2023-04-12T00:33:58.996Z,93971.47
2023-04-12T00:36:31.008Z,93970.66
2023-04-12T00:39:00.291Z,93976.69
2023-04-12T00:41:29.363Z,93969.25
2023-04-12T00:43:58.810Z,93968.03
2023-04-12T00:46:29.802Z,93966.66
2023-04-12T00:48:59.871Z,93964.34
2023-04-12T00:51:33.929Z,93969.25
2023-04-12T00:54:03.524Z,93969.00
2023-04-12T00:56:32.807Z,93958.34
2023-04-12T00:59:05.583Z,93966.50
2023-04-12T01:01:34.967Z,93969.09
2023-04-12T01:04:05.050Z,93972.34
2023-04-12T01:06:46.831Z,93975.22
2023-04-12T01:09:27.614Z,93975.16
2023-04-12T01:12:10.528Z,93970.66
2023-04-12T01:14:49.896Z,93967.72
2023-04-12T01:17:28.052Z,93966.25
2023-04-12T01:20:13.767Z,93962.81
2023-04-12T01:23:26.708Z,93967.78
2023-04-12T01:26:25.872Z,93969.06
2023-04-12T01:28:58.708Z,93966.09
2023-04-12T01:31:30.783Z,93967.69
2023-04-12T01:34:01.243Z,93968.16
2023-04-12T01:36:31.661Z,93960.25
2023-04-12T01:39:05.233Z,93960.25
2023-04-12T01:41:35.253Z,93963.97
2023-04-12T01:44:06.113Z,93966.47
2023-04-12T01:46:37.727Z,93965.22
2023-04-12T01:49:07.198Z,93963.06
2023-04-12T01:51:47.139Z,93968.16
2023-04-12T01:54:21.424Z,93966.50
2023-04-12T01:56:58.089Z,93957.38
2023-04-12T01:59:33.988Z,93963.84
2023-04-12T02:02:04.510Z,93961.22
2023-04-12T02:04:36.265Z,93961.22
2023-04-12T02:07:05.829Z,93963.81
2023-04-12T02:09:38.982Z,93953.25
2023-04-12T02:12:08.772Z,93955.78
2023-04-12T02:14:40.102Z,93933.38
2023-04-12T02:17:09.866Z,93938.47
2023-04-12T02:19:39.682Z,93924.47
2023-04-12T02:22:09.338Z,93935.03
2023-04-12T02:24:38.459Z,93927.94
2023-04-12T02:27:07.669Z,93926.97
2023-04-12T02:29:41.613Z,93927.78
2023-04-12T02:32:11.264Z,93926.69
2023-04-12T02:34:40.634Z,93925.38
2023-04-12T02:37:18.172Z,93917.44
2023-04-12T02:39:47.418Z,93926.41
2023-04-12T02:42:17.928Z,93931.44
2023-04-12T02:44:52.053Z,93934.31
2023-04-12T02:47:21.771Z,93932.19
2023-04-12T02:49:52.138Z,93937.16
2023-04-12T02:52:24.093Z,93936.09
2023-04-12T02:55:09.162Z,93932.41
2023-04-12T02:57:38.481Z,93943.78
2023-04-12T03:00:13.514Z,93946.63
2023-04-12T03:02:50.205Z,93958.47
2023-04-12T03:05:30.684Z,93942.66
2023-04-12T03:08:00.848Z,93948.16
2023-04-12T03:10:39.213Z,93947.91
2023-04-12T03:13:08.227Z,93943.13
2023-04-12T03:15:45.162Z,93949.03
2023-04-12T03:18:15.159Z,93959.03
2023-04-12T03:20:48.616Z,93945.59
2023-04-12T03:23:19.326Z,93942.66
2023-04-12T03:25:53.772Z,93942.94
2023-04-12T03:28:32.834Z,93941.53
2023-04-12T03:31:05.357Z,93949.22
2023-04-12T03:33:41.920Z,93945.03
2023-04-12T03:36:21.945Z,93936.78
2023-04-12T03:38:56.674Z,93943.78
2023-04-12T03:41:26.281Z,93936.84
2023-04-12T03:43:55.484Z,93927.16
2023-04-12T03:46:26.300Z,93930.28
2023-04-12T03:48:59.535Z,93933.41
2023-04-12T03:51:31.036Z,93932.28
2023-04-12T03:54:05.232Z,93939.88
2023-04-12T03:56:46.861Z,93942.81
2023-04-12T03:59:24.963Z,93944.97
2023-04-12T04:01:55.543Z,93947.50
2023-04-12T04:04:26.237Z,93956.72
2023-04-12T04:06:59.564Z,93954.28
2023-04-12T04:09:30.607Z,93951.22
2023-04-12T04:11:59.573Z,93962.41
2023-04-12T04:14:28.753Z,93955.06
2023-04-12T04:16:59.774Z,93974.16
2023-04-12T04:19:29.133Z,93978.69
2023-04-12T04:21:59.321Z,93983.66
2023-04-12T04:24:29.479Z,93990.28
2023-04-12T04:27:02.820Z,93994.84
2023-04-12T04:29:32.545Z,93990.88
2023-04-12T04:32:07.885Z,93997.84
2023-04-12T04:34:37.293Z,94000.91
2023-04-12T04:37:12.627Z,93998.00
2023-04-12T04:39:44.038Z,94004.22
2023-04-12T04:42:14.368Z,94005.66
2023-04-12T04:45:04.309Z,94018.31
2023-04-12T04:47:41.228Z,94017.66
2023-04-12T04:50:10.982Z,94011.28
2023-04-12T04:52:41.408Z,94019.69
2023-04-12T04:55:14.840Z,94020.31
2023-04-12T04:57:47.083Z,94027.13
2023-04-12T05:00:18.502Z,94022.94
2023-04-12T05:02:56.254Z,94025.59
2023-04-12T05:05:29.110Z,94032.47
2023-04-12T05:08:06.129Z,94027.78
2023-04-12T05:10:37.105Z,94029.38
2023-04-12T05:13:06.373Z,94031.09
2023-04-12T05:15:36.113Z,94038.94
2023-04-12T05:18:06.895Z,94050.06
2023-04-12T05:20:35.904Z,94040.63
2023-04-12T05:23:05.244Z,94030.94
2023-04-12T05:25:34.612Z,94026.88
2023-04-12T05:28:14.407Z,94030.63
2023-04-12T05:30:44.435Z,94027.81
2023-04-12T05:33:18.042Z,94024.91
2023-04-12T05:35:49.001Z,94032.56
2023-04-12T05:38:18.219Z,94050.91
2023-04-12T05:40:51.677Z,94049.16
2023-04-12T05:43:25.004Z,94055.41
2023-04-12T05:45:53.985Z,94053.50
2023-04-12T05:48:27.256Z,94065.09
2023-04-12T05:50:59.119Z,94073.34
2023-04-12T05:53:29.947Z,94077.16
2023-04-12T05:56:02.153Z,94073.16
2023-04-12T05:58:32.025Z,94071.31
2023-04-12T06:01:01.303Z,94076.28
2023-04-12T06:03:32.544Z,94082.75
2023-04-12T06:06:10.331Z,94085.31
2023-04-12T06:08:39.782Z,94090.91
2023-04-12T06:11:12.251Z,94087.44
2023-04-12T06:13:43.758Z,94095.91
2023-04-12T06:16:13.900Z,94086.13
2023-04-12T06:18:44.429Z,94088.09
2023-04-12T06:21:14.209Z,94088.66
2023-04-12T06:23:44.522Z,94085.38
2023-04-12T06:26:14.747Z,94090.69
2023-04-12T06:28:44.582Z,94086.56
2023-04-12T06:31:13.787Z,94082.38
2023-04-12T06:33:45.614Z,94083.50
2023-04-12T06:36:16.430Z,94078.72
2023-04-12T06:38:45.693Z,94079.19
2023-04-12T06:41:14.740Z,94085.34
2023-04-12T06:43:44.376Z,94081.09
2023-04-12T06:46:15.777Z,94080.16
2023-04-12T06:48:46.451Z,94079.00
2023-04-12T06:51:15.385Z,94081.22
2023-04-12T06:53:44.592Z,94075.16
2023-04-12T06:56:13.669Z,94072.22
2023-04-12T06:58:43.233Z,94067.31
2023-04-12T07:01:14.777Z,94066.94
2023-04-12T07:03:44.042Z,94072.50
2023-04-12T07:06:25.157Z,94075.16
2023-04-12T07:08:56.386Z,94074.81
2023-04-12T07:11:25.613Z,94063.16
2023-04-12T07:13:54.766Z,94058.13
2023-04-12T07:16:23.934Z,94057.19
2023-04-12T07:18:53.184Z,94049.06
2023-04-12T07:21:23.783Z,94062.75
2023-04-12T07:23:53.295Z,94058.09
2023-04-12T07:26:22.591Z,94048.53
2023-04-12T07:28:51.660Z,94049.28
2023-04-12T07:31:20.767Z,94046.66
2023-04-12T07:33:49.966Z,94048.81
2023-04-12T07:36:21.478Z,94057.81
2023-04-12T07:38:56.104Z,94048.28
2023-04-12T07:41:25.674Z,94057.00
2023-04-12T07:43:55.119Z,94055.94
2023-04-12T07:46:24.284Z,94077.72
2023-04-12T07:48:53.428Z,94060.66
2023-04-12T07:51:22.614Z,94063.56
2023-04-12T07:53:53.074Z,94066.81
2023-04-12T07:56:22.241Z,94072.41
2023-04-12T07:58:51.310Z,94062.84
2023-04-12T08:01:20.344Z,94066.56
2023-04-12T08:03:49.596Z,94064.47
2023-04-12T08:06:18.886Z,94055.41
2023-04-12T08:08:48.151Z,94071.31
2023-04-12T08:11:18.761Z,94067.03
2023-04-12T08:13:47.896Z,94053.72
2023-04-12T08:16:17.077Z,94044.88
2023-04-12T08:18:46.311Z,94034.25
2023-04-12T08:21:15.421Z,94028.09
2023-04-12T08:23:44.542Z,94021.22
2023-04-12T08:26:13.639Z,94022.50
2023-04-12T08:28:44.914Z,94037.31
2023-04-12T08:31:14.114Z,94022.63
2023-04-12T08:33:43.184Z,94025.28
2023-04-12T08:36:12.836Z,94019.94
2023-04-12T08:38:45.975Z,94012.44
2023-04-12T08:41:15.775Z,94013.47
2023-04-12T08:43:47.925Z,94004.03
2023-04-12T08:46:17.707Z,94007.63
2023-04-12T08:48:49.087Z,93991.66
2023-04-12T08:51:19.481Z,94002.09
2023-04-12T08:53:49.080Z,93991.22
2023-04-12T08:56:18.757Z,94004.09
2023-04-12T08:58:50.108Z,93992.50
2023-04-12T09:01:21.748Z,93995.53
2023-04-12T09:03:51.358Z,93986.53
2023-04-12T09:06:20.618Z,93984.78
2023-04-12T09:08:54.623Z,93975.59
2023-04-12T09:11:25.175Z,93966.91
2023-04-12T09:13:56.601Z,93975.91
2023-04-12T09:16:41.520Z,93964.75
2023-04-12T09:19:11.077Z,93969.34
2023-04-12T09:21:54.391Z,93961.22
2023-04-12T09:24:24.490Z,93964.97
2023-04-12T09:27:04.652Z,93963.75
2023-04-12T09:29:35.619Z,93988.22
2023-04-12T09:32:06.709Z,93984.44
2023-04-12T09:34:37.519Z,93974.91
2023-04-12T09:37:16.294Z,93978.44
2023-04-12T09:39:45.924Z,93973.47
2023-04-12T09:42:32.334Z,93988.56
2023-04-12T09:45:20.528Z,93978.25
2023-04-12T09:47:50.005Z,93966.75
2023-04-12T09:50:23.098Z,93971.84
2023-04-12T09:52:52.662Z,93973.41
2023-04-12T09:55:24.019Z,93959.50
2023-04-12T09:57:55.116Z,93961.19
2023-04-12T10:00:27.341Z,93946.75
2023-04-12T10:02:57.946Z,93947.69
2023-04-12T10:05:28.429Z,93942.75
2023-04-12T10:08:01.499Z,93936.88
2023-04-12T10:10:32.667Z,93946.56
2023-04-12T10:13:03.134Z,93938.13
2023-04-12T10:15:36.484Z,93928.47
2023-04-12T10:18:10.200Z,93932.44
2023-04-12T10:20:42.024Z,93924.75
2023-04-12T10:23:13.815Z,93911.69
2023-04-12T10:25:44.443Z,93903.16
2023-04-12T10:28:18.973Z,93914.84
2023-04-12T10:30:52.460Z,93907.34
2023-04-12T10:33:26.726Z,93906.72
2023-04-12T10:36:03.968Z,93906.72
2023-04-12T10:38:47.858Z,93914.50
2023-04-12T10:41:21.465Z,93933.63
2023-04-12T10:43:51.457Z,93933.16
2023-04-12T10:46:51.786Z,93925.63
2023-04-12T10:49:21.228Z,93925.53
2023-04-12T10:52:20.167Z,93943.97
2023-04-12T10:54:50.968Z,93950.72
2023-04-12T10:57:47.508Z,93947.81
2023-04-12T11:00:17.580Z,93946.31
2023-04-12T11:03:12.865Z,93945.53
2023-04-12T11:06:12.466Z,93947.47
2023-04-12T11:09:07.694Z,93945.84
2023-04-12T11:11:43.608Z,93951.56
2023-04-12T11:14:12.894Z,93946.88
2023-04-12T11:17:15.170Z,93938.47
2023-04-12T11:19:48.589Z,93911.34
2023-04-12T11:22:19.262Z,93919.66
2023-04-12T11:24:49.815Z,93935.25
2023-04-12T11:27:20.618Z,93912.28
2023-04-12T11:29:55.795Z,93910.34
2023-04-12T11:32:26.873Z,93919.91
2023-04-12T11:34:59.468Z,93910.22
2023-04-12T11:37:32.802Z,93921.38
2023-04-12T11:40:02.246Z,93921.44
2023-04-12T11:42:32.214Z,93933.78
2023-04-12T11:45:05.518Z,93922.81
2023-04-12T11:47:44.845Z,93922.28
2023-04-12T11:50:30.121Z,93926.50
2023-04-12T11:53:12.142Z,93925.22
2023-04-12T11:55:41.449Z,93929.69
2023-04-12T11:58:10.626Z,93943.41
2023-04-12T12:00:40.027Z,93939.28
2023-04-12T12:03:09.502Z,93932.25
2023-04-12T12:05:42.942Z,93939.19
2023-04-12T12:08:12.853Z,93944.22
2023-04-12T12:10:52.345Z,93952.41
2023-04-12T12:13:46.249Z,93950.16
2023-04-12T12:16:15.536Z,93933.00
2023-04-12T12:18:49.068Z,93928.34
2023-04-12T12:21:21.032Z,93945.84
2023-04-12T12:23:51.087Z,93941.56
2023-04-12T12:26:24.074Z,93931.47
2023-04-12T12:28:53.200Z,93922.28
2023-04-12T12:31:24.013Z,93936.09
2023-04-12T12:33:57.227Z,93954.63
2023-04-12T12:36:42.665Z,93953.84
2023-04-12T12:39:13.109Z,93951.63
2023-04-12T12:41:42.634Z,93951.31
2023-04-12T12:44:12.997Z,93948.00
2023-04-12T12:49:14.257Z,93925.81
2023-04-12T12:51:45.503Z,93926.69
2023-04-12T12:54:19.826Z,93922.34
2023-04-12T12:56:54.607Z,93927.13
2023-04-12T12:59:25.477Z,93912.75
2023-04-12T13:01:55.300Z,93912.78
2023-04-12T13:04:24.585Z,93912.28
2023-04-12T13:06:55.465Z,93904.19
2023-04-12T13:09:24.646Z,93899.50
2023-04-12T13:11:53.881Z,93875.13
2023-04-12T13:14:22.955Z,93908.19
2023-04-12T13:16:52.098Z,93899.78
2023-04-12T13:19:21.309Z,93902.97
2023-04-12T13:21:52.585Z,93911.31
2023-04-12T13:24:23.732Z,93903.47
2023-04-12T13:26:53.148Z,93923.66
2023-04-12T13:29:22.428Z,93913.75
2023-04-12T13:31:51.636Z,93903.56
2023-04-12T13:34:20.834Z,93909.25
2023-04-12T13:36:51.019Z,93906.81
2023-04-12T13:39:20.286Z,93905.66
2023-04-12T13:41:50.993Z,93910.31
2023-04-12T13:44:20.736Z,93918.44
2023-04-12T13:46:49.967Z,93912.47
2023-04-12T13:49:18.969Z,93913.16
2023-04-12T13:51:48.410Z,93911.63
2023-04-12T13:54:17.751Z,93921.16
2023-04-12T13:56:47.004Z,93928.84
2023-04-12T13:59:17.945Z,93921.09
2023-04-12T14:01:47.426Z,93916.72
2023-04-12T14:04:16.917Z,93930.16
2023-04-12T14:06:46.191Z,93926.16
2023-04-12T14:09:25.912Z,93944.06
2023-04-12T14:11:56.601Z,93932.59
2023-04-12T14:14:28.754Z,93950.28
2023-04-12T14:16:58.125Z,93958.13
2023-04-12T14:19:27.399Z,93941.88
2023-04-12T14:21:57.089Z,93962.16
2023-04-12T14:24:27.020Z,93945.56
2023-04-12T14:26:57.943Z,93943.22
2023-04-12T14:29:28.965Z,93930.28
2023-04-12T14:31:58.256Z,93924.75
2023-04-12T14:34:27.325Z,93938.50
2023-04-12T14:36:58.322Z,93945.47
2023-04-12T14:39:28.194Z,93949.63
2023-04-12T14:41:58.305Z,93957.09
2023-04-12T14:44:29.241Z,93962.91
2023-04-12T14:46:58.513Z,93967.59
2023-04-12T14:49:29.431Z,93978.66
2023-04-12T14:52:00.290Z,93965.34
2023-04-12T14:54:29.533Z,93961.16
2023-04-12T14:56:58.686Z,93975.31
2023-04-12T14:59:29.394Z,93975.25
2023-04-12T15:01:59.769Z,93974.41
2023-04-12T15:04:29.134Z,93981.75
2023-04-12T15:06:58.368Z,93988.72
2023-04-12T15:09:27.963Z,93978.59
2023-04-12T15:12:01.378Z,93986.03
2023-04-12T15:14:32.285Z,93985.00
2023-04-12T15:17:01.392Z,93982.00
2023-04-12T15:19:32.433Z,93993.50
2023-04-12T15:22:01.711Z,93992.00
2023-04-12T15:24:31.419Z,93991.16
2023-04-12T15:27:00.644Z,93987.84
2023-04-12T15:29:31.173Z,93987.34
2023-04-12T15:32:01.978Z,93991.94
2023-04-12T15:34:34.139Z,93996.72
2023-04-12T15:37:03.569Z,93989.47
2023-04-12T15:39:32.839Z,93997.75
2023-04-12T15:42:02.588Z,93990.13
2023-04-12T15:44:32.457Z,94002.94
2023-04-12T15:47:10.296Z,93992.03
2023-04-12T15:49:41.247Z,93996.03
2023-04-12T15:52:10.452Z,94002.19
2023-04-12T15:54:44.066Z,94006.69
2023-04-12T15:57:13.644Z,93999.06
2023-04-12T15:59:43.270Z,94008.69
2023-04-12T16:02:14.343Z,94016.38
2023-04-12T16:04:45.742Z,94013.25
2023-04-12T16:07:14.908Z,94016.75
2023-04-12T16:09:44.430Z,94023.41
2023-04-12T16:12:13.622Z,94016.22
2023-04-12T16:14:43.932Z,94013.88
2023-04-12T16:17:14.685Z,94027.16
2023-04-12T16:19:43.924Z,94023.88
2023-04-12T16:22:13.081Z,94028.72
2023-04-12T16:24:42.173Z,94024.50
2023-04-12T16:27:11.330Z,94025.59
2023-04-12T16:29:40.522Z,94029.03
2023-04-12T16:32:09.997Z,94031.16
2023-04-12T16:34:41.588Z,94030.38
2023-04-12T16:37:10.756Z,94041.56
2023-04-12T16:39:39.861Z,94043.94
2023-04-12T16:42:09.048Z,94041.84
2023-04-12T16:44:38.274Z,94048.78
2023-04-12T16:47:07.534Z,94051.69
2023-04-12T16:49:37.653Z,94050.66
2023-04-12T16:52:10.062Z,94061.00
2023-04-12T16:54:39.174Z,94061.28
2023-04-12T16:57:08.338Z,94065.25
2023-04-12T16:59:39.806Z,94057.31
2023-04-12T17:02:09.200Z,94057.53
2023-04-12T17:04:38.356Z,94058.88
2023-04-12T17:07:09.975Z,94063.38
2023-04-12T17:09:39.139Z,94064.44
2023-04-12T17:12:08.917Z,94067.63
2023-04-12T17:14:39.019Z,94067.13
2023-04-12T17:17:08.455Z,94079.03
2023-04-12T17:19:37.766Z,94082.72
2023-04-12T17:22:07.038Z,94084.78
2023-04-12T17:24:40.706Z,94092.25
2023-04-12T17:27:09.820Z,94088.25
2023-04-12T17:29:39.412Z,94099.91
2023-04-12T17:32:08.506Z,94104.41
2023-04-12T17:34:37.613Z,94104.94
2023-04-12T17:37:06.910Z,94102.81
2023-04-12T17:39:37.533Z,94095.38
2023-04-12T17:42:08.138Z,94095.88
2023-04-12T17:44:37.365Z,94106.25
2023-04-12T17:47:06.517Z,94103.06
2023-04-12T17:49:35.763Z,94107.03
2023-04-12T17:52:05.221Z,94107.00
2023-04-12T17:54:35.067Z,94104.09
2023-04-12T17:57:04.749Z,94109.84
2023-04-12T17:59:35.477Z,94111.44
2023-04-12T18:02:04.783Z,94116.75
2023-04-12T18:04:36.173Z,94116.47
2023-04-12T18:07:08.944Z,94111.38
2023-04-12T18:09:39.132Z,94128.88
2023-04-12T18:12:08.318Z,94129.91
2023-04-12T18:14:40.794Z,94131.72
2023-04-12T18:17:10.105Z,94125.56
2023-04-12T18:19:39.376Z,94125.13
2023-04-12T18:22:08.515Z,94128.03
2023-04-12T18:24:38.575Z,94139.13
2023-04-12T18:27:07.874Z,94132.53
2023-04-12T18:29:38.439Z,94131.41
2023-04-12T18:32:07.705Z,94123.66
2023-04-12T18:34:36.944Z,94137.91
2023-04-12T18:37:06.888Z,94130.41
2023-04-12T18:39:36.132Z,94139.06
2023-04-12T18:42:05.443Z,94135.25
2023-04-12T18:44:34.911Z,94137.28
2023-04-12T18:47:06.176Z,94132.97
2023-04-12T18:49:35.530Z,94129.19
2023-04-12T18:52:05.028Z,94129.09
2023-04-12T18:54:34.134Z,94132.78
2023-04-12T18:57:03.809Z,94131.03
2023-04-12T18:59:33.077Z,94125.72
2023-04-12T19:02:02.434Z,94128.63
2023-04-12T19:04:35.336Z,94132.44
2023-04-12T19:07:04.648Z,94131.06
2023-04-12T19:09:34.404Z,94130.19
2023-04-12T19:12:05.514Z,94133.75
2023-04-12T19:14:34.657Z,94134.50
2023-04-12T19:17:04.470Z,94148.88
2023-04-12T19:19:35.097Z,94143.97
2023-04-12T19:22:06.045Z,94147.28
2023-04-12T19:24:35.710Z,94144.31
2023-04-12T19:27:04.893Z,94139.03
2023-04-12T19:29:34.002Z,94149.59
2023-04-12T19:32:05.707Z,94139.28
2023-04-12T19:34:36.464Z,94142.00
2023-04-12T19:37:06.176Z,94142.00
2023-04-12T19:39:42.023Z,94139.94
2023-04-12T19:42:11.229Z,94142.66
2023-04-12T19:44:41.037Z,94145.28
2023-04-12T19:47:10.357Z,94151.09
2023-04-12T19:49:41.572Z,94141.09
2023-04-12T19:52:15.498Z,94142.22
2023-04-12T19:54:45.248Z,94137.50
2023-04-12T19:57:15.745Z,94143.28
2023-04-12T19:59:45.057Z,94136.63
2023-04-12T20:02:14.158Z,94138.72
2023-04-12T20:04:44.656Z,94138.00
2023-04-12T20:07:13.845Z,94143.91
2023-04-12T20:09:42.833Z,94147.25
2023-04-12T20:12:11.840Z,94153.97
2023-04-12T20:14:40.910Z,94148.66
2023-04-12T20:17:10.738Z,94151.22
2023-04-12T20:19:39.944Z,94146.38
2023-04-12T20:22:10.431Z,94150.69
2023-04-12T20:24:39.757Z,94148.47
2023-04-12T20:27:09.707Z,94151.16
2023-04-12T20:29:39.565Z,94160.97
2023-04-12T20:32:08.814Z,94165.50
2023-04-12T20:34:37.791Z,94160.88
2023-04-12T20:37:06.799Z,94153.81
2023-04-12T20:39:37.389Z,94157.16
2023-04-12T20:42:06.942Z,94152.53
2023-04-12T20:44:36.271Z,94148.84
2023-04-12T20:47:05.725Z,94147.63
2023-04-12T20:49:36.218Z,94154.88
2023-04-12T20:52:05.465Z,94154.19
2023-04-12T20:54:34.643Z,94152.50
2023-04-12T20:57:05.551Z,94152.81
2023-04-12T20:59:36.187Z,94147.13
2023-04-12T21:02:05.388Z,94143.91
2023-04-12T21:04:36.444Z,94147.13
2023-04-12T21:07:06.259Z,94140.41
2023-04-12T21:09:35.545Z,94130.53
2023-04-12T21:12:08.831Z,94142.66
2023-04-12T21:14:38.667Z,94138.66
2023-04-12T21:17:08.143Z,94149.19
2023-04-12T21:19:39.257Z,94140.81
2023-04-12T21:22:08.941Z,94137.28
2023-04-12T21:24:39.170Z,94139.22
2023-04-12T21:27:09.754Z,94134.88
2023-04-12T21:29:41.714Z,94137.84
2023-04-12T21:32:11.238Z,94142.22
2023-04-12T21:34:40.575Z,94144.25
2023-04-12T21:37:09.703Z,94141.50
2023-04-12T21:39:39.528Z,94139.25
2023-04-12T21:42:10.084Z,94139.13
2023-04-12T21:44:39.922Z,94137.53
2023-04-12T21:47:09.062Z,94138.88
2023-04-12T21:49:38.152Z,94145.44
2023-04-12T21:52:07.183Z,94149.41
2023-04-12T21:54:37.215Z,94150.78
2023-04-12T21:57:06.495Z,94153.09
2023-04-12T21:59:36.966Z,94146.81
2023-04-12T22:02:06.155Z,94151.72
2023-04-12T22:04:35.364Z,94142.44
2023-04-12T22:07:06.475Z,94143.81
2023-04-12T22:09:36.023Z,94145.22
2023-04-12T22:12:06.829Z,94141.66
2023-04-12T22:14:38.054Z,94135.72
2023-04-12T22:17:07.412Z,94130.78
2023-04-12T22:19:37.088Z,94134.78
2023-04-12T22:22:06.621Z,94136.63
2023-04-12T22:24:36.691Z,94134.19
2023-04-12T22:27:07.129Z,94141.03
2023-04-12T22:29:38.019Z,94135.56
2023-04-12T22:32:07.209Z,94137.56
2023-04-12T22:34:39.181Z,94146.84
2023-04-12T22:37:08.899Z,94145.63
2023-04-12T22:39:38.050Z,94136.56
2023-04-12T22:42:07.277Z,94134.38
2023-04-12T22:44:39.423Z,94136.66
2023-04-12T22:47:09.038Z,94138.91
2023-04-12T22:49:50.605Z,94137.88
2023-04-12T22:52:19.691Z,94133.31
2023-04-12T22:54:48.915Z,94130.88
2023-04-12T22:57:18.438Z,94137.50
2023-04-12T22:59:48.967Z,94135.31
2023-04-12T23:02:18.220Z,94132.44
2023-04-12T23:04:49.365Z,94131.59
2023-04-12T23:07:18.637Z,94136.19
2023-04-12T23:09:47.755Z,94132.28
2023-04-12T23:12:16.873Z,94131.03
2023-04-12T23:14:46.076Z,94135.50
2023-04-12T23:17:19.900Z,94136.50
2023-04-12T23:19:50.547Z,94141.97
2023-04-12T23:22:48.538Z,94136.34
2023-04-12T23:25:23.567Z,94133.66
2023-04-12T23:27:52.746Z,94136.28
2023-04-12T23:30:22.883Z,94130.91
2023-04-12T23:32:54.756Z,94135.38
2023-04-12T23:35:23.771Z,94134.19
2023-04-12T23:37:53.615Z,94137.69
2023-04-12T23:40:22.817Z,94139.06
2023-04-12T23:42:52.410Z,94140.44
2023-04-12T23:45:22.020Z,94138.63
2023-04-12T23:47:52.576Z,94130.19
2023-04-12T23:50:21.957Z,94139.66
2023-04-12T23:52:51.066Z,94134.56
2023-04-12T23:55:20.317Z,94144.63
2023-04-12T23:57:49.390Z,94145.84
